sensor_id;sensor_type;location;lat;lon;timestamp;temperature;humidity
26479;DHT22;14163;-26.142;27.992;2022-08-01T00:00:52;18.90;79.30
26479;DHT22;14163;-26.142;27.992;2022-08-01T00:03:21;18.90;80.20
26479;DHT22;14163;-26.142;27.992;2022-08-01T00:05:50;18.90;81.00
26479;DHT22;14163;-26.142;27.992;2022-08-01T00:08:19;18.90;81.90
26479;DHT22;14163;-26.142;27.992;2022-08-01T00:10:48;18.80;82.50
26479;DHT22;14163;-26.142;27.992;2022-08-01T00:13:17;18.80;83.50
26479;DHT22;14163;-26.142;27.992;2022-08-01T00:15:47;18.70;84.40
26479;DHT22;14163;-26.142;27.992;2022-08-01T00:18:18;18.70;85.00
26479;DHT22;14163;-26.142;27.992;2022-08-01T00:20:47;18.70;85.50
26479;DHT22;14163;-26.142;27.992;2022-08-01T00:23:16;18.60;86.10
26479;DHT22;14163;-26.142;27.992;2022-08-01T00:25:45;18.60;86.40
26479;DHT22;14163;-26.142;27.992;2022-08-01T00:28:15;18.50;86.90
26479;DHT22;14163;-26.142;27.992;2022-08-01T00:30:44;18.50;87.50
26479;DHT22;14163;-26.142;27.992;2022-08-01T00:33:13;18.40;88.10
26479;DHT22;14163;-26.142;27.992;2022-08-01T00:35:44;18.40;88.80
26479;DHT22;14163;-26.142;27.992;2022-08-01T00:38:14;18.30;89.70
26479;DHT22;14163;-26.142;27.992;2022-08-01T00:40:43;18.30;90.00
26479;DHT22;14163;-26.142;27.992;2022-08-01T00:43:12;18.20;90.30
26479;DHT22;14163;-26.142;27.992;2022-08-01T00:45:41;18.10;90.70
26479;DHT22;14163;-26.142;27.992;2022-08-01T00:48:10;18.00;91.00
26479;DHT22;14163;-26.142;27.992;2022-08-01T00:50:39;18.00;91.40
26479;DHT22;14163;-26.142;27.992;2022-08-01T00:53:11;18.00;91.80
26479;DHT22;14163;-26.142;27.992;2022-08-01T00:55:40;17.90;92.20
26479;DHT22;14163;-26.142;27.992;2022-08-01T00:58:09;17.80;92.60
26479;DHT22;14163;-26.142;27.992;2022-08-01T01:00:39;17.80;93.00
26479;DHT22;14163;-26.142;27.992;2022-08-01T01:03:08;17.70;93.60
26479;DHT22;14163;-26.142;27.992;2022-08-01T01:05:43;17.70;94.10
26479;DHT22;14163;-26.142;27.992;2022-08-01T01:08:21;17.60;94.80
26479;DHT22;14163;-26.142;27.992;2022-08-01T01:10:55;17.60;95.30
26479;DHT22;14163;-26.142;27.992;2022-08-01T01:13:31;17.60;95.90
26479;DHT22;14163;-26.142;27.992;2022-08-01T01:16:06;17.60;96.50
26479;DHT22;14163;-26.142;27.992;2022-08-01T01:18:42;17.60;97.20
26479;DHT22;14163;-26.142;27.992;2022-08-01T01:21:26;17.60;97.70
26479;DHT22;14163;-26.142;27.992;2022-08-01T01:24:10;17.50;98.60
26479;DHT22;14163;-26.142;27.992;2022-08-01T01:26:45;17.40;99.60
26479;DHT22;14163;-26.142;27.992;2022-08-01T01:29:23;17.30;99.90
26479;DHT22;14163;-26.142;27.992;2022-08-01T01:31:57;17.30;99.90
26479;DHT22;14163;-26.142;27.992;2022-08-01T01:34:28;17.20;99.90
26479;DHT22;14163;-26.142;27.992;2022-08-01T01:37:00;17.20;99.90
26479;DHT22;14163;-26.142;27.992;2022-08-01T01:39:30;17.10;99.90
26479;DHT22;14163;-26.142;27.992;2022-08-01T01:42:02;17.10;99.90
26479;DHT22;14163;-26.142;27.992;2022-08-01T01:44:36;17.20;99.90
26479;DHT22;14163;-26.142;27.992;2022-08-01T01:47:06;17.20;99.90
26479;DHT22;14163;-26.142;27.992;2022-08-01T01:49:36;17.30;99.90
26479;DHT22;14163;-26.142;27.992;2022-08-01T01:52:07;17.30;99.90
26479;DHT22;14163;-26.142;27.992;2022-08-01T01:54:40;17.30;99.90
26479;DHT22;14163;-26.142;27.992;2022-08-01T01:57:12;17.20;99.90
26479;DHT22;14163;-26.142;27.992;2022-08-01T01:59:45;17.10;99.90
26479;DHT22;14163;-26.142;27.992;2022-08-01T02:02:15;17.10;99.90
26479;DHT22;14163;-26.142;27.992;2022-08-01T02:04:46;17.20;99.90
26479;DHT22;14163;-26.142;27.992;2022-08-01T02:07:19;17.00;99.90
26479;DHT22;14163;-26.142;27.992;2022-08-01T02:09:49;16.90;99.90
26479;DHT22;14163;-26.142;27.992;2022-08-01T02:12:21;16.90;99.90
26479;DHT22;14163;-26.142;27.992;2022-08-01T02:14:53;16.90;99.90
26479;DHT22;14163;-26.142;27.992;2022-08-01T02:17:25;17.00;99.90
26479;DHT22;14163;-26.142;27.992;2022-08-01T02:19:55;17.00;99.90
26479;DHT22;14163;-26.142;27.992;2022-08-01T02:22:27;17.10;99.90
26479;DHT22;14163;-26.142;27.992;2022-08-01T02:25:00;17.30;99.90
26479;DHT22;14163;-26.142;27.992;2022-08-01T02:27:39;17.40;99.90
26479;DHT22;14163;-26.142;27.992;2022-08-01T02:30:13;17.50;99.90
26479;DHT22;14163;-26.142;27.992;2022-08-01T02:32:46;17.50;99.90
26479;DHT22;14163;-26.142;27.992;2022-08-01T02:35:21;17.40;99.90
26479;DHT22;14163;-26.142;27.992;2022-08-01T02:37:52;17.40;99.90
26479;DHT22;14163;-26.142;27.992;2022-08-01T02:40:22;17.50;99.90
26479;DHT22;14163;-26.142;27.992;2022-08-01T02:42:53;17.40;99.90
26479;DHT22;14163;-26.142;27.992;2022-08-01T02:45:25;17.20;99.90
26479;DHT22;14163;-26.142;27.992;2022-08-01T02:47:59;17.20;99.90
26479;DHT22;14163;-26.142;27.992;2022-08-01T02:50:30;17.10;99.90
26479;DHT22;14163;-26.142;27.992;2022-08-01T02:53:02;17.00;99.90
26479;DHT22;14163;-26.142;27.992;2022-08-01T02:55:33;16.80;99.90
26479;DHT22;14163;-26.142;27.992;2022-08-01T02:58:03;16.80;99.90
26479;DHT22;14163;-26.142;27.992;2022-08-01T03:00:35;16.80;99.90
26479;DHT22;14163;-26.142;27.992;2022-08-01T03:03:05;16.80;99.90
26479;DHT22;14163;-26.142;27.992;2022-08-01T03:05:36;16.80;99.90
26479;DHT22;14163;-26.142;27.992;2022-08-01T03:08:07;16.80;99.90
26479;DHT22;14163;-26.142;27.992;2022-08-01T03:10:38;16.80;99.90
26479;DHT22;14163;-26.142;27.992;2022-08-01T03:13:09;16.90;99.90
26479;DHT22;14163;-26.142;27.992;2022-08-01T03:15:42;17.00;99.90
26479;DHT22;14163;-26.142;27.992;2022-08-01T03:18:13;17.10;99.90
26479;DHT22;14163;-26.142;27.992;2022-08-01T03:20:43;17.20;99.90
26479;DHT22;14163;-26.142;27.992;2022-08-01T03:23:14;17.20;99.90
26479;DHT22;14163;-26.142;27.992;2022-08-01T03:25:45;17.30;99.90
26479;DHT22;14163;-26.142;27.992;2022-08-01T03:28:16;17.20;99.90
26479;DHT22;14163;-26.142;27.992;2022-08-01T03:30:50;17.20;99.90
26479;DHT22;14163;-26.142;27.992;2022-08-01T03:33:20;17.10;99.90
26479;DHT22;14163;-26.142;27.992;2022-08-01T03:35:52;16.90;99.90
26479;DHT22;14163;-26.142;27.992;2022-08-01T03:38:24;16.80;99.90
26479;DHT22;14163;-26.142;27.992;2022-08-01T03:40:57;16.70;99.90
26479;DHT22;14163;-26.142;27.992;2022-08-01T03:43:30;16.60;99.90
26479;DHT22;14163;-26.142;27.992;2022-08-01T03:46:07;16.60;99.90
26479;DHT22;14163;-26.142;27.992;2022-08-01T03:48:40;16.50;99.90
26479;DHT22;14163;-26.142;27.992;2022-08-01T03:51:12;16.50;99.90
26479;DHT22;14163;-26.142;27.992;2022-08-01T03:53:43;16.60;99.90
26479;DHT22;14163;-26.142;27.992;2022-08-01T03:56:16;16.60;99.90
26479;DHT22;14163;-26.142;27.992;2022-08-01T03:58:47;16.50;99.90
26479;DHT22;14163;-26.142;27.992;2022-08-01T04:01:19;16.40;99.90
26479;DHT22;14163;-26.142;27.992;2022-08-01T04:03:48;16.30;99.90
26479;DHT22;14163;-26.142;27.992;2022-08-01T04:06:18;16.30;99.90
26479;DHT22;14163;-26.142;27.992;2022-08-01T04:08:47;16.20;99.90
26479;DHT22;14163;-26.142;27.992;2022-08-01T04:11:24;16.10;99.90
26479;DHT22;14163;-26.142;27.992;2022-08-01T04:13:55;16.00;99.90
26479;DHT22;14163;-26.142;27.992;2022-08-01T04:16:26;16.00;99.90
26479;DHT22;14163;-26.142;27.992;2022-08-01T04:18:55;16.10;99.90
26479;DHT22;14163;-26.142;27.992;2022-08-01T04:21:26;16.20;99.90
26479;DHT22;14163;-26.142;27.992;2022-08-01T04:23:59;16.30;99.90
26479;DHT22;14163;-26.142;27.992;2022-08-01T04:26:30;16.30;99.90
26479;DHT22;14163;-26.142;27.992;2022-08-01T04:29:02;16.30;99.90
26479;DHT22;14163;-26.142;27.992;2022-08-01T04:31:33;16.30;99.90
26479;DHT22;14163;-26.142;27.992;2022-08-01T04:34:05;16.30;99.90
26479;DHT22;14163;-26.142;27.992;2022-08-01T04:36:35;16.20;99.90
26479;DHT22;14163;-26.142;27.992;2022-08-01T04:39:06;16.10;99.90
26479;DHT22;14163;-26.142;27.992;2022-08-01T04:41:36;16.10;99.90
26479;DHT22;14163;-26.142;27.992;2022-08-01T04:44:06;16.20;99.90
26479;DHT22;14163;-26.142;27.992;2022-08-01T04:46:38;16.20;99.90
26479;DHT22;14163;-26.142;27.992;2022-08-01T04:49:08;16.10;99.90
26479;DHT22;14163;-26.142;27.992;2022-08-01T04:51:50;16.10;99.90
26479;DHT22;14163;-26.142;27.992;2022-08-01T04:54:24;16.00;99.90
26479;DHT22;14163;-26.142;27.992;2022-08-01T04:56:54;15.90;99.90
26479;DHT22;14163;-26.142;27.992;2022-08-01T04:59:26;15.90;99.90
26479;DHT22;14163;-26.142;27.992;2022-08-01T05:02:18;15.80;99.90
26479;DHT22;14163;-26.142;27.992;2022-08-01T05:04:47;15.80;99.90
26479;DHT22;14163;-26.142;27.992;2022-08-01T05:07:16;15.90;99.90
26479;DHT22;14163;-26.142;27.992;2022-08-01T05:09:46;16.00;99.90
26479;DHT22;14163;-26.142;27.992;2022-08-01T05:12:15;15.90;99.90
26479;DHT22;14163;-26.142;27.992;2022-08-01T05:14:45;16.00;99.90
26479;DHT22;14163;-26.142;27.992;2022-08-01T05:17:16;16.10;99.90
26479;DHT22;14163;-26.142;27.992;2022-08-01T05:19:45;16.10;99.90
26479;DHT22;14163;-26.142;27.992;2022-08-01T05:22:14;16.10;99.90
26479;DHT22;14163;-26.142;27.992;2022-08-01T05:24:44;16.10;99.90
26479;DHT22;14163;-26.142;27.992;2022-08-01T05:27:13;16.10;99.90
26479;DHT22;14163;-26.142;27.992;2022-08-01T05:29:43;16.00;99.90
26479;DHT22;14163;-26.142;27.992;2022-08-01T05:32:12;15.90;99.90
26479;DHT22;14163;-26.142;27.992;2022-08-01T05:34:43;15.80;99.90
26479;DHT22;14163;-26.142;27.992;2022-08-01T05:37:12;15.70;99.90
26479;DHT22;14163;-26.142;27.992;2022-08-01T05:39:41;15.90;99.90
26479;DHT22;14163;-26.142;27.992;2022-08-01T05:42:10;15.90;99.90
26479;DHT22;14163;-26.142;27.992;2022-08-01T05:44:40;15.80;99.90
26479;DHT22;14163;-26.142;27.992;2022-08-01T05:47:09;15.80;99.90
26479;DHT22;14163;-26.142;27.992;2022-08-01T05:49:38;16.00;99.90
26479;DHT22;14163;-26.142;27.992;2022-08-01T05:52:09;16.10;99.90
26479;DHT22;14163;-26.142;27.992;2022-08-01T05:54:39;16.20;99.90
26479;DHT22;14163;-26.142;27.992;2022-08-01T05:57:08;16.20;99.90
26479;DHT22;14163;-26.142;27.992;2022-08-01T05:59:37;16.30;99.90
26479;DHT22;14163;-26.142;27.992;2022-08-01T06:02:07;16.40;99.90
26479;DHT22;14163;-26.142;27.992;2022-08-01T06:04:36;16.40;99.90
26479;DHT22;14163;-26.142;27.992;2022-08-01T06:07:05;16.40;99.90
26479;DHT22;14163;-26.142;27.992;2022-08-01T06:09:36;16.40;99.90
26479;DHT22;14163;-26.142;27.992;2022-08-01T06:12:06;16.30;99.90
26479;DHT22;14163;-26.142;27.992;2022-08-01T06:14:35;16.30;99.90
26479;DHT22;14163;-26.142;27.992;2022-08-01T06:17:04;16.30;99.90
26479;DHT22;14163;-26.142;27.992;2022-08-01T06:19:33;16.30;99.90
26479;DHT22;14163;-26.142;27.992;2022-08-01T06:22:02;16.20;99.90
26479;DHT22;14163;-26.142;27.992;2022-08-01T06:24:32;16.10;99.90
26479;DHT22;14163;-26.142;27.992;2022-08-01T06:27:03;16.00;99.90
26479;DHT22;14163;-26.142;27.992;2022-08-01T06:29:32;16.10;99.90
26479;DHT22;14163;-26.142;27.992;2022-08-01T06:32:02;16.20;99.90
26479;DHT22;14163;-26.142;27.992;2022-08-01T06:34:31;16.20;99.90
26479;DHT22;14163;-26.142;27.992;2022-08-01T06:37:00;16.30;99.90
26479;DHT22;14163;-26.142;27.992;2022-08-01T06:39:29;16.30;99.90
26479;DHT22;14163;-26.142;27.992;2022-08-01T06:41:59;16.30;99.90
26479;DHT22;14163;-26.142;27.992;2022-08-01T06:44:29;16.30;99.90
26479;DHT22;14163;-26.142;27.992;2022-08-01T06:46:59;16.30;99.90
26479;DHT22;14163;-26.142;27.992;2022-08-01T06:49:28;16.60;99.90
26479;DHT22;14163;-26.142;27.992;2022-08-01T06:51:57;16.70;99.90
26479;DHT22;14163;-26.142;27.992;2022-08-01T06:54:27;16.70;99.90
26479;DHT22;14163;-26.142;27.992;2022-08-01T06:56:56;16.80;99.90
26479;DHT22;14163;-26.142;27.992;2022-08-01T06:59:25;16.70;99.90
26479;DHT22;14163;-26.142;27.992;2022-08-01T07:01:56;16.70;99.90
26479;DHT22;14163;-26.142;27.992;2022-08-01T07:04:25;16.80;99.90
26479;DHT22;14163;-26.142;27.992;2022-08-01T07:06:54;16.90;99.90
26479;DHT22;14163;-26.142;27.992;2022-08-01T07:09:23;17.00;99.90
26479;DHT22;14163;-26.142;27.992;2022-08-01T07:11:53;17.10;99.90
26479;DHT22;14163;-26.142;27.992;2022-08-01T07:14:23;17.00;99.90
26479;DHT22;14163;-26.142;27.992;2022-08-01T07:16:52;16.80;99.90
26479;DHT22;14163;-26.142;27.992;2022-08-01T07:19:23;16.60;99.90
26479;DHT22;14163;-26.142;27.992;2022-08-01T07:21:52;16.60;99.90
26479;DHT22;14163;-26.142;27.992;2022-08-01T07:24:21;16.70;99.90
26479;DHT22;14163;-26.142;27.992;2022-08-01T07:26:50;16.70;99.90
26479;DHT22;14163;-26.142;27.992;2022-08-01T07:29:21;16.70;99.90
26479;DHT22;14163;-26.142;27.992;2022-08-01T07:31:51;16.70;99.90
26479;DHT22;14163;-26.142;27.992;2022-08-01T07:34:23;16.70;99.90
26479;DHT22;14163;-26.142;27.992;2022-08-01T07:36:53;16.60;99.90
26479;DHT22;14163;-26.142;27.992;2022-08-01T07:39:22;16.60;99.90
26479;DHT22;14163;-26.142;27.992;2022-08-01T07:41:51;16.50;99.90
26479;DHT22;14163;-26.142;27.992;2022-08-01T07:44:20;16.30;99.90
26479;DHT22;14163;-26.142;27.992;2022-08-01T07:46:50;16.50;99.90
26479;DHT22;14163;-26.142;27.992;2022-08-01T07:49:19;16.70;99.90
26479;DHT22;14163;-26.142;27.992;2022-08-01T07:51:50;16.70;99.90
26479;DHT22;14163;-26.142;27.992;2022-08-01T07:54:19;16.80;99.90
26479;DHT22;14163;-26.142;27.992;2022-08-01T07:56:50;16.90;99.90
26479;DHT22;14163;-26.142;27.992;2022-08-01T07:59:20;17.00;99.90
26479;DHT22;14163;-26.142;27.992;2022-08-01T08:01:50;16.90;99.90
26479;DHT22;14163;-26.142;27.992;2022-08-01T08:04:19;16.80;99.90
26479;DHT22;14163;-26.142;27.992;2022-08-01T08:06:50;16.80;99.90
26479;DHT22;14163;-26.142;27.992;2022-08-01T08:09:20;16.80;99.90
26479;DHT22;14163;-26.142;27.992;2022-08-01T08:11:49;17.10;99.90
26479;DHT22;14163;-26.142;27.992;2022-08-01T08:14:19;17.10;99.90
26479;DHT22;14163;-26.142;27.992;2022-08-01T08:16:49;17.40;99.90
26479;DHT22;14163;-26.142;27.992;2022-08-01T08:19:19;17.30;99.90
26479;DHT22;14163;-26.142;27.992;2022-08-01T08:21:50;17.30;99.90
26479;DHT22;14163;-26.142;27.992;2022-08-01T08:24:19;17.40;99.90
26479;DHT22;14163;-26.142;27.992;2022-08-01T08:26:50;17.40;99.90
26479;DHT22;14163;-26.142;27.992;2022-08-01T08:29:20;17.70;99.90
26479;DHT22;14163;-26.142;27.992;2022-08-01T08:31:49;17.60;99.90
26479;DHT22;14163;-26.142;27.992;2022-08-01T08:34:19;17.80;99.90
26479;DHT22;14163;-26.142;27.992;2022-08-01T08:36:51;17.90;99.90
26479;DHT22;14163;-26.142;27.992;2022-08-01T08:39:21;18.00;99.90
26479;DHT22;14163;-26.142;27.992;2022-08-01T08:41:51;18.40;99.90
26479;DHT22;14163;-26.142;27.992;2022-08-01T08:44:20;18.60;99.90
26479;DHT22;14163;-26.142;27.992;2022-08-01T08:46:51;18.80;99.90
26479;DHT22;14163;-26.142;27.992;2022-08-01T08:49:23;19.00;99.90
26479;DHT22;14163;-26.142;27.992;2022-08-01T08:51:58;19.10;99.90
26479;DHT22;14163;-26.142;27.992;2022-08-01T08:54:29;19.00;99.90
26479;DHT22;14163;-26.142;27.992;2022-08-01T08:56:59;19.10;99.90
26479;DHT22;14163;-26.142;27.992;2022-08-01T08:59:29;19.20;99.90
26479;DHT22;14163;-26.142;27.992;2022-08-01T09:01:59;19.40;99.90
26479;DHT22;14163;-26.142;27.992;2022-08-01T09:04:28;19.60;99.90
26479;DHT22;14163;-26.142;27.992;2022-08-01T09:06:59;19.80;99.90
26479;DHT22;14163;-26.142;27.992;2022-08-01T09:09:28;19.90;99.90
26479;DHT22;14163;-26.142;27.992;2022-08-01T09:11:58;20.00;99.90
26479;DHT22;14163;-26.142;27.992;2022-08-01T09:14:27;20.10;99.90
26479;DHT22;14163;-26.142;27.992;2022-08-01T09:17:02;20.40;99.90
26479;DHT22;14163;-26.142;27.992;2022-08-01T09:19:37;20.60;99.90
26479;DHT22;14163;-26.142;27.992;2022-08-01T09:22:09;20.80;99.90
26479;DHT22;14163;-26.142;27.992;2022-08-01T09:24:39;20.90;99.90
26479;DHT22;14163;-26.142;27.992;2022-08-01T09:27:19;20.90;99.90
26479;DHT22;14163;-26.142;27.992;2022-08-01T09:29:51;20.80;99.90
26479;DHT22;14163;-26.142;27.992;2022-08-01T09:32:20;21.00;99.90
26479;DHT22;14163;-26.142;27.992;2022-08-01T09:34:50;21.20;99.90
26479;DHT22;14163;-26.142;27.992;2022-08-01T09:37:30;22.00;99.90
26479;DHT22;14163;-26.142;27.992;2022-08-01T09:39:59;23.20;99.90
26479;DHT22;14163;-26.142;27.992;2022-08-01T09:42:28;24.20;99.90
26479;DHT22;14163;-26.142;27.992;2022-08-01T09:44:58;24.60;99.90
26479;DHT22;14163;-26.142;27.992;2022-08-01T09:47:38;24.60;99.90
26479;DHT22;14163;-26.142;27.992;2022-08-01T09:50:08;24.30;99.90
26479;DHT22;14163;-26.142;27.992;2022-08-01T09:52:39;24.30;99.90
26479;DHT22;14163;-26.142;27.992;2022-08-01T09:55:10;24.80;99.90
26479;DHT22;14163;-26.142;27.992;2022-08-01T09:57:39;25.20;99.90
26479;DHT22;14163;-26.142;27.992;2022-08-01T10:00:17;25.40;99.90
26479;DHT22;14163;-26.142;27.992;2022-08-01T10:02:47;25.40;99.90
26479;DHT22;14163;-26.142;27.992;2022-08-01T10:05:16;25.30;99.90
26479;DHT22;14163;-26.142;27.992;2022-08-01T10:08:03;25.50;99.90
26479;DHT22;14163;-26.142;27.992;2022-08-01T10:10:32;25.90;99.90
26479;DHT22;14163;-26.142;27.992;2022-08-01T10:13:02;26.70;99.90
26479;DHT22;14163;-26.142;27.992;2022-08-01T10:15:32;27.40;99.90
26479;DHT22;14163;-26.142;27.992;2022-08-01T10:18:04;28.00;99.60
26479;DHT22;14163;-26.142;27.992;2022-08-01T10:20:34;28.60;98.40
26479;DHT22;14163;-26.142;27.992;2022-08-01T10:23:05;28.40;97.60
26479;DHT22;14163;-26.142;27.992;2022-08-01T10:25:40;28.40;97.10
26479;DHT22;14163;-26.142;27.992;2022-08-01T10:28:14;28.70;96.50
26479;DHT22;14163;-26.142;27.992;2022-08-01T10:30:45;28.80;96.20
26479;DHT22;14163;-26.142;27.992;2022-08-01T10:33:15;29.20;93.80
26479;DHT22;14163;-26.142;27.992;2022-08-01T10:35:46;29.20;92.10
26479;DHT22;14163;-26.142;27.992;2022-08-01T10:38:17;28.10;93.90
26479;DHT22;14163;-26.142;27.992;2022-08-01T10:40:46;28.00;94.20
26479;DHT22;14163;-26.142;27.992;2022-08-01T10:43:16;27.60;94.10
26479;DHT22;14163;-26.142;27.992;2022-08-01T10:45:45;27.60;94.40
26479;DHT22;14163;-26.142;27.992;2022-08-01T10:48:18;27.80;91.80
26479;DHT22;14163;-26.142;27.992;2022-08-01T10:50:51;28.10;92.40
26479;DHT22;14163;-26.142;27.992;2022-08-01T10:53:23;28.00;92.10
26479;DHT22;14163;-26.142;27.992;2022-08-01T10:55:58;28.10;92.30
26479;DHT22;14163;-26.142;27.992;2022-08-01T10:58:29;28.20;92.50
26479;DHT22;14163;-26.142;27.992;2022-08-01T11:01:19;28.70;91.60
26479;DHT22;14163;-26.142;27.992;2022-08-01T11:04:06;28.80;91.40
26479;DHT22;14163;-26.142;27.992;2022-08-01T11:06:48;29.60;90.50
26479;DHT22;14163;-26.142;27.992;2022-08-01T11:09:42;29.80;87.80
26479;DHT22;14163;-26.142;27.992;2022-08-01T11:12:13;30.00;85.90
26479;DHT22;14163;-26.142;27.992;2022-08-01T11:17:55;29.20;85.20
26479;DHT22;14163;-26.142;27.992;2022-08-01T11:20:25;29.00;85.60
26479;DHT22;14163;-26.142;27.992;2022-08-01T11:23:26;28.80;87.90
26479;DHT22;14163;-26.142;27.992;2022-08-01T11:26:19;29.50;87.10
26479;DHT22;14163;-26.142;27.992;2022-08-01T11:29:16;29.50;85.80
26479;DHT22;14163;-26.142;27.992;2022-08-01T11:31:45;29.50;83.80
26479;DHT22;14163;-26.142;27.992;2022-08-01T11:34:14;29.20;84.50
26479;DHT22;14163;-26.142;27.992;2022-08-01T11:36:44;29.60;83.70
26479;DHT22;14163;-26.142;27.992;2022-08-01T11:39:17;30.10;81.20
26479;DHT22;14163;-26.142;27.992;2022-08-01T11:41:49;29.50;80.40
26479;DHT22;14163;-26.142;27.992;2022-08-01T11:44:23;28.80;80.70
26479;DHT22;14163;-26.142;27.992;2022-08-01T11:47:01;27.60;83.10
26479;DHT22;14163;-26.142;27.992;2022-08-01T11:49:57;27.00;85.90
26479;DHT22;14163;-26.142;27.992;2022-08-01T11:52:29;26.40;88.20
26479;DHT22;14163;-26.142;27.992;2022-08-01T11:55:06;26.20;88.90
26479;DHT22;14163;-26.142;27.992;2022-08-01T11:57:37;25.80;89.50
26479;DHT22;14163;-26.142;27.992;2022-08-01T12:00:12;25.40;90.10
26479;DHT22;14163;-26.142;27.992;2022-08-01T12:02:43;25.10;90.90
26479;DHT22;14163;-26.142;27.992;2022-08-01T12:05:14;24.60;91.20
26479;DHT22;14163;-26.142;27.992;2022-08-01T12:07:47;24.60;92.10
26479;DHT22;14163;-26.142;27.992;2022-08-01T12:10:19;24.50;92.60
26479;DHT22;14163;-26.142;27.992;2022-08-01T12:12:51;24.30;93.00
26479;DHT22;14163;-26.142;27.992;2022-08-01T12:15:22;24.30;93.70
26479;DHT22;14163;-26.142;27.992;2022-08-01T12:17:56;24.30;91.50
26479;DHT22;14163;-26.142;27.992;2022-08-01T12:20:27;23.90;90.80
26479;DHT22;14163;-26.142;27.992;2022-08-01T12:22:57;23.60;91.70
26479;DHT22;14163;-26.142;27.992;2022-08-01T12:25:26;23.40;92.20
26479;DHT22;14163;-26.142;27.992;2022-08-01T12:28:00;23.10;92.90
26479;DHT22;14163;-26.142;27.992;2022-08-01T12:30:30;22.90;93.70
26479;DHT22;14163;-26.142;27.992;2022-08-01T12:33:02;22.80;93.50
26479;DHT22;14163;-26.142;27.992;2022-08-01T12:35:33;22.80;93.60
26479;DHT22;14163;-26.142;27.992;2022-08-01T12:38:05;22.80;93.10
26479;DHT22;14163;-26.142;27.992;2022-08-01T12:40:39;22.80;93.00
26479;DHT22;14163;-26.142;27.992;2022-08-01T12:43:16;22.40;92.60
26479;DHT22;14163;-26.142;27.992;2022-08-01T12:45:47;22.30;93.20
26479;DHT22;14163;-26.142;27.992;2022-08-01T12:48:18;22.40;93.30
26479;DHT22;14163;-26.142;27.992;2022-08-01T12:50:48;22.50;93.90
26479;DHT22;14163;-26.142;27.992;2022-08-01T12:53:19;22.30;93.80
26479;DHT22;14163;-26.142;27.992;2022-08-01T12:55:50;22.20;94.30
26479;DHT22;14163;-26.142;27.992;2022-08-01T12:58:21;22.00;94.60
26479;DHT22;14163;-26.142;27.992;2022-08-01T13:01:01;22.10;94.40
26479;DHT22;14163;-26.142;27.992;2022-08-01T13:03:31;22.30;94.60
26479;DHT22;14163;-26.142;27.992;2022-08-01T13:06:00;22.50;94.80
26479;DHT22;14163;-26.142;27.992;2022-08-01T13:08:31;22.20;95.50
26479;DHT22;14163;-26.142;27.992;2022-08-01T13:11:05;22.00;96.80
26479;DHT22;14163;-26.142;27.992;2022-08-01T13:13:41;22.00;97.40
26479;DHT22;14163;-26.142;27.992;2022-08-01T13:16:11;22.00;97.70
26479;DHT22;14163;-26.142;27.992;2022-08-01T13:18:40;22.40;97.90
26479;DHT22;14163;-26.142;27.992;2022-08-01T13:21:17;22.60;97.70
26479;DHT22;14163;-26.142;27.992;2022-08-01T13:24:02;22.70;97.30
26479;DHT22;14163;-26.142;27.992;2022-08-01T13:26:41;22.80;97.30
26479;DHT22;14163;-26.142;27.992;2022-08-01T13:29:13;22.90;97.70
26479;DHT22;14163;-26.142;27.992;2022-08-01T13:31:43;23.00;97.50
26479;DHT22;14163;-26.142;27.992;2022-08-01T13:34:13;22.80;95.80
26479;DHT22;14163;-26.142;27.992;2022-08-01T13:36:42;22.50;96.70
26479;DHT22;14163;-26.142;27.992;2022-08-01T13:39:12;22.40;97.10
26479;DHT22;14163;-26.142;27.992;2022-08-01T13:41:57;22.50;97.40
26479;DHT22;14163;-26.142;27.992;2022-08-01T13:44:28;22.60;98.00
26479;DHT22;14163;-26.142;27.992;2022-08-01T13:46:57;22.80;97.70
26479;DHT22;14163;-26.142;27.992;2022-08-01T13:49:26;22.50;97.10
26479;DHT22;14163;-26.142;27.992;2022-08-01T13:51:56;22.40;97.70
26479;DHT22;14163;-26.142;27.992;2022-08-01T13:54:25;22.30;97.90
26479;DHT22;14163;-26.142;27.992;2022-08-01T13:56:54;22.40;97.70
26479;DHT22;14163;-26.142;27.992;2022-08-01T13:59:24;22.30;98.20
26479;DHT22;14163;-26.142;27.992;2022-08-01T14:01:55;22.30;98.10
26479;DHT22;14163;-26.142;27.992;2022-08-01T14:04:24;22.30;98.40
26479;DHT22;14163;-26.142;27.992;2022-08-01T14:06:54;22.50;98.10
26479;DHT22;14163;-26.142;27.992;2022-08-01T14:09:23;22.60;98.10
26479;DHT22;14163;-26.142;27.992;2022-08-01T14:11:52;22.80;97.60
26479;DHT22;14163;-26.142;27.992;2022-08-01T14:14:21;22.70;97.20
26479;DHT22;14163;-26.142;27.992;2022-08-01T14:16:51;22.90;96.90
26479;DHT22;14163;-26.142;27.992;2022-08-01T14:19:22;22.70;96.20
26479;DHT22;14163;-26.142;27.992;2022-08-01T14:21:51;22.30;96.50
26479;DHT22;14163;-26.142;27.992;2022-08-01T14:24:20;21.90;96.80
26479;DHT22;14163;-26.142;27.992;2022-08-01T14:26:50;21.80;96.70
26479;DHT22;14163;-26.142;27.992;2022-08-01T14:29:19;21.60;96.40
26479;DHT22;14163;-26.142;27.992;2022-08-01T14:31:48;21.30;96.60
26479;DHT22;14163;-26.142;27.992;2022-08-01T14:34:18;21.10;97.40
26479;DHT22;14163;-26.142;27.992;2022-08-01T14:36:49;21.10;97.80
26479;DHT22;14163;-26.142;27.992;2022-08-01T14:39:20;21.20;98.00
26479;DHT22;14163;-26.142;27.992;2022-08-01T14:41:49;21.30;97.20
26479;DHT22;14163;-26.142;27.992;2022-08-01T14:44:18;21.30;97.10
26479;DHT22;14163;-26.142;27.992;2022-08-01T14:46:48;21.10;96.90
26479;DHT22;14163;-26.142;27.992;2022-08-01T14:49:17;20.90;98.00
26479;DHT22;14163;-26.142;27.992;2022-08-01T14:51:48;20.90;98.10
26479;DHT22;14163;-26.142;27.992;2022-08-01T14:54:17;20.70;97.90
26479;DHT22;14163;-26.142;27.992;2022-08-01T14:56:46;20.60;98.40
26479;DHT22;14163;-26.142;27.992;2022-08-01T14:59:16;20.60;98.40
26479;DHT22;14163;-26.142;27.992;2022-08-01T15:01:45;20.60;98.60
26479;DHT22;14163;-26.142;27.992;2022-08-01T15:04:14;20.60;98.90
26479;DHT22;14163;-26.142;27.992;2022-08-01T15:06:44;20.60;99.20
26479;DHT22;14163;-26.142;27.992;2022-08-01T15:09:15;20.60;99.30
26479;DHT22;14163;-26.142;27.992;2022-08-01T15:11:44;20.60;99.40
26479;DHT22;14163;-26.142;27.992;2022-08-01T15:14:14;20.60;99.50
26479;DHT22;14163;-26.142;27.992;2022-08-01T15:17:00;20.80;99.60
26479;DHT22;14163;-26.142;27.992;2022-08-01T15:19:29;20.90;99.20
26479;DHT22;14163;-26.142;27.992;2022-08-01T15:21:59;20.70;99.50
26479;DHT22;14163;-26.142;27.992;2022-08-01T15:24:30;20.60;99.50
26479;DHT22;14163;-26.142;27.992;2022-08-01T15:26:59;20.40;99.50
26479;DHT22;14163;-26.142;27.992;2022-08-01T15:29:29;20.30;99.60
26479;DHT22;14163;-26.142;27.992;2022-08-01T15:31:58;20.30;99.70